Nearby METAR Reports

 

KSJC - San Jose, California, USA
Distance from station: NE 9mi, 14km
Updated: Tue, 13-Nov-2018 3:53pm MST
Haze, Overcast
Haze, Overcast
 Wind from NW
Wind: NW 5 mph , 7 km/h
Temperature: 63°F , 17°C
Dew Point: 30°F , -1°C
Humidity: 30%
Barometer: 30.37 inHg , 1028.4 hPa
Summary: Haze
Clouds: Overcast
Visibility: 4 miles , 6 km
Cloud details: Few Clouds 100 ft
Mostly cloudy 3000 ft
Overcast 4500 ft
2018/11/13 22:53 KSJC 132253Z 32004KT 4SM HZ FEW001 BKN030 OVC045 17/M01 A3037 RMK AO2 SLP284 FU FEW001 FU BKN030 FU OVC045 T01671011
KNUQ - Moffett Nas/Mtn, California, USA
Distance from station: N 9mi, 14km
Updated: Tue, 13-Nov-2018 3:56pm MST
Haze, Clear
Haze, Clear
 Wind from calm
Wind: Calm
Temperature: 63°F , 17°C
Dew Point: 30°F , -1°C
Humidity: 30%
Barometer: 30.38 inHg , 1028.8 hPa
Summary: Haze
Clouds: Clear
Visibility: 4 miles , 6 km
2018/11/13 22:56 KNUQ 132256Z 00000KT 4SM HZ CLR 17/M01 A3038 RMK AO2 SLP288 T01721006
KPAO - Palo Alto, California, USA
Distance from station: NNW 14mi, 23km
Updated: Tue, 13-Nov-2018 3:47pm MST
Smoke, Haze, Mostly cloudy
Smoke, Haze, Mostly cloudy
 Wind from N
Wind: N 9 mph , 15 km/h
Temperature: 61°F , 16°C
Dew Point: 48°F , 9°C
Humidity: 63%
Barometer: 30.38 inHg , 1028.8 hPa
Summary: Smoke, Haze
Clouds: Mostly cloudy
Visibility: 3 miles , 5 km
Cloud details: Mostly cloudy 20000 ft
2018/11/13 22:47 KPAO 132247Z 01008KT 3SM FU HZ BKN200 16/09 A3038
 
KRHV - San Jose/Reid, California, USA
Distance from station: ENE 12mi, 19km
Updated: Tue, 13-Nov-2018 2:47pm MST
Smoke, Overcast
Smoke, Overcast
 Wind from W
Wind: W 7 mph , 11 km/h
Temperature: 64°F , 18°C
Dew Point: 28°F , -2°C
Humidity: 26%
Barometer: 30.36 inHg , 1028.1 hPa
Summary: Smoke
Clouds: Overcast
Visibility: 8 miles , 13 km
Cloud details: Mostly cloudy 4000 ft
Overcast 8000 ft
2018/11/13 21:47 KRHV 132147Z 28006KT 8SM FU BKN040 OVC080 18/M02 A3036
KOAK - Oakland, California, USA
Distance from station: NNW 31mi, 50km
Updated: Tue, 13-Nov-2018 3:53pm MST
Haze, Overcast
Haze, Overcast
 Wind from W
Wind: W 5 mph , 7 km/h
Temperature: 63°F , 17°C
Dew Point: 41°F , 5°C
Humidity: 45%
Barometer: 30.38 inHg , 1028.8 hPa
Summary: Haze
Clouds: Overcast
Visibility: 3 miles , 5 km
Cloud details: Mostly cloudy 1500 ft
Mostly cloudy 12000 ft
Overcast 18000 ft
2018/11/13 22:53 KOAK 132253Z 28004KT 3SM HZ BKN015 BKN120 OVC180 17/05 A3038 RMK AO2 SLP288 FU BKN015 T01670050
KSQL - San Carlos Airpo, California, USA
Distance from station: NW 21mi, 34km
Updated: Tue, 13-Nov-2018 2:50pm MST
Smoke, Haze, Mostly cloudy
Smoke, Haze, Mostly cloudy
 Wind from calm
Wind: Calm
Temperature: 61°F , 16°C
Dew Point: 37°F , 3°C
Humidity: 42%
Barometer: 30.38 inHg , 1028.8 hPa
Summary: Smoke, Haze
Clouds: Mostly cloudy
Visibility: 2 1/2 miles , 4 km
Cloud details: Mostly cloudy 18000 ft
2018/11/13 21:50 KSQL 132150Z 00000KT 2 1/2SM FU HZ BKN180 16/03 A3038
 
KSFO - San Francisco, California, USA
Distance from station: NW 30mi, 49km
Updated: Tue, 13-Nov-2018 3:56pm MST
Haze, Mostly cloudy
Haze, Mostly cloudy
 Wind from NE
Wind: NE 3 mph , 6 km/h
Temperature: 61°F , 16°C
Dew Point: 41°F , 5°C
Humidity: 48%
Barometer: 30.37 inHg , 1028.4 hPa
Summary: Haze
Clouds: Mostly cloudy
Visibility: 4 miles , 6 km
Cloud details: Mostly cloudy 18000 ft
2018/11/13 22:56 KSFO 132256Z 05003KT 4SM HZ BKN180 16/05 A3037 RMK AO2 SLP283 T01610050 $
KE16 - San Martin, California, USA
Distance from station: ESE 27mi, 43km
Updated: Tue, 13-Nov-2018 3:20pm MST
Clear
Clear
 Wind from NNW
Wind: NNW 9 mph , 15 km/h
Temperature: 66°F , 19°C
Dew Point: 25°F , -4°C
Humidity: 21%
Barometer: 30.37 inHg , 1028.4 hPa
Clouds: Clear
Visibility: 8 miles , 13 km
2018/11/13 22:20 KE16 132220Z AUTO 33008KT 8SM CLR 19/M04 A3037 RMK AO2
KWVI - Watsonville, California, USA
Distance from station: SSE 27mi, 44km
Updated: Tue, 13-Nov-2018 3:53pm MST
Clear
Clear
 Wind from S
Wind: S 3 mph , 6 km/h
Temperature: 70°F , 21°C
Dew Point: 30°F , -1°C
Humidity: 23%
Barometer: 30.35 inHg , 1027.8 hPa
Clouds: Clear
Visibility: 9 miles , 14 km
2018/11/13 22:53 KWVI 132253Z AUTO 18003KT 9SM CLR 21/M01 A3035 RMK AO2 SLP278 T02061006
 
KHAF - Half Moon Bay, California, USA
Distance from station: WNW 31mi, 50km
Updated: Tue, 13-Nov-2018 3:55pm MST
Clear
Clear
 Wind from calm
Wind: Calm
Temperature: 61°F , 16°C
Dew Point: 34°F , 1°C
Humidity: 36%
Barometer: 30.36 inHg , 1028.1 hPa
Clouds: Clear
Visibility: 8 miles , 13 km
2018/11/13 22:55 KHAF 132255Z AUTO 00000KT 8SM CLR 16/01 A3036 RMK AO2
KHWD - Hayward, California, USA
Distance from station: N 28mi, 44km
Updated: Tue, 13-Nov-2018 3:54pm MST
Haze, Smoke, Clear
Haze, Smoke, Clear
 Wind from W
Wind: W 3 mph , 6 km/h
Temperature: 61°F , 16°C
Dew Point: 39°F , 4°C
Humidity: 45%
Barometer: 30.37 inHg , 1028.4 hPa
Summary: Haze, Smoke
Clouds: Clear
Visibility: 2 1/2 miles , 4 km
2018/11/13 22:54 KHWD 132254Z 28003KT 2 1/2SM HZ FU CLR 16/04 A3037 RMK AO2 SLP295 T01610044
KLVK - Livermore, California, USA
Distance from station: NNE 31mi, 51km
Updated: Tue, 13-Nov-2018 3:53pm MST
Haze, Smoke, Clear
Haze, Smoke, Clear
 Wind from ENE
Wind: ENE 7 mph , 11 km/h
Temperature: 64°F , 18°C
Dew Point: 28°F , -2°C
Humidity: 26%
Barometer: 30.37 inHg , 1028.4 hPa
Summary: Haze, Smoke
Clouds: Clear
Visibility: 3 miles , 5 km
2018/11/13 22:53 KLVK 132253Z 07006KT 3SM HZ FU CLR 18/M02 A3037 RMK AO2 SLP285 T01781022